Polo, MO

10:04 AM CDT on September 17, 2014 (GMT -0500)
Mineral City | Change Station
CLOSE
Current Station
Personal Weather Station
Location: Rayville, MO
Elevation: 788 ft
Nearby Weather Stations

Elev 788 ft 39.42 °N, 94.05 °W | Updated 2 minutes ago

Overcast
Overcast
63.5 °F
Feels Like 63.5 °F
N
0.0
Wind Variable Wind from SE
Gusts 0.0 mph

Today
High -- | Low -- °F
--% Chance of Precip.
Yesterday
High -- | Low -- °F
Precip. -- in
6:59 AM 7:21 PM
Waning Crescent, 35% visible
Pressure 29.94 in
Visibility 3.0 miles
Clouds Overcast 400 ft
Dew Point 61 °F
Humidity 93%
Rainfall 0.06 in
Snow Depth Not available.
UV 1 out of 12
Pollen 4.30 out of 12
Air Quality Not available.
Flu Activity Not available.
METAR KGPH 171455Z AUTO 10003KT 3SM BR OVC004 17/16 A2994 RMK AO2 LTG DSNT S

More Conditions Fewer Conditions

Pressure 29.94 in
Visibility 3.0 miles
Clouds Overcast 400 ft
Dew Point 61 °F
Humidity 93%
Rainfall 0.06 in
Snow Depth Not available.
UV 1 out of 12
Pollen 4.30 out of 12
Air Quality Not available.
Flu Activity Not available.
METAR KGPH 171455Z AUTO 10003KT 3SM BR OVC004 17/16 A2994 RMK AO2 LTG DSNT S

More Conditions Fewer Conditions

10-Day Weather Forecast

Almanac

Astronomy

Sep. 17, 2014 Rise Set
Actual Time 6:59 AM CDT 7:21 PM CDT
Civil Twilight 6:32 AM CDT 7:48 PM CDT
Nautical Twilight 6:00 AM CDT 8:19 PM CDT
Astronomical Twilight 5:28 AM CDT 8:52 PM CDT
Moon 1:00 AM CDT 3:30 PM CDT
Length of Visible Light 13h 16m
Length of Day
12h 22m
Tomorrow will be 2m 34s shorter.
Waning Crescent, 35% of the Moon is Illuminated
Today
Waning Crescent
Sep 24
New
Oct 1
First Quarter
Oct 8
Full
Oct 15
Last Quarter

Today's Extremes

State Highs State Lows

Community

WunderPhotos

Upload Photos

1,754,064 photos uploaded!

WunderBlogs® & News

Nearby

Snow Depth

Station Depth Elevation
No new snow has been reported.

Earthquake Activity

City Distance Mag. Time & Date
No recent earthquake activity has been reported nearby.
Minimum magnitude displayed is 2.5.

Coastal Water Temperatures

Place Temperature
No Stations Reporting

Nearby Weather Stations